sensor_id;sensor_type;location;lat;lon;timestamp;temperature;humidity
1351;DHT22;669;50.206;9.998;2023-05-16T00:02:00;11.70;91.20
1351;DHT22;669;50.206;9.998;2023-05-16T00:04:29;11.70;92.10
1351;DHT22;669;50.206;9.998;2023-05-16T00:06:58;11.70;91.50
1351;DHT22;669;50.206;9.998;2023-05-16T00:09:26;11.60;91.50
1351;DHT22;669;50.206;9.998;2023-05-16T00:11:55;11.50;91.80
1351;DHT22;669;50.206;9.998;2023-05-16T00:14:24;11.40;92.00
1351;DHT22;669;50.206;9.998;2023-05-16T00:16:53;11.30;91.50
1351;DHT22;669;50.206;9.998;2023-05-16T00:19:24;11.30;92.30
1351;DHT22;669;50.206;9.998;2023-05-16T00:21:53;11.20;92.50
1351;DHT22;669;50.206;9.998;2023-05-16T00:24:21;11.20;92.80
1351;DHT22;669;50.206;9.998;2023-05-16T00:26:49;11.20;92.50
1351;DHT22;669;50.206;9.998;2023-05-16T00:29:18;11.20;93.60
1351;DHT22;669;50.206;9.998;2023-05-16T00:31:46;11.20;92.90
1351;DHT22;669;50.206;9.998;2023-05-16T00:34:14;11.30;93.50
1351;DHT22;669;50.206;9.998;2023-05-16T00:36:42;11.40;93.60
1351;DHT22;669;50.206;9.998;2023-05-16T00:39:10;11.40;93.50
1351;DHT22;669;50.206;9.998;2023-05-16T00:41:38;11.50;93.40
1351;DHT22;669;50.206;9.998;2023-05-16T00:44:06;11.60;92.90
1351;DHT22;669;50.206;9.998;2023-05-16T00:46:36;11.60;93.10
1351;DHT22;669;50.206;9.998;2023-05-16T00:49:04;11.60;93.30
1351;DHT22;669;50.206;9.998;2023-05-16T00:51:32;11.60;93.50
1351;DHT22;669;50.206;9.998;2023-05-16T00:54:00;11.60;93.40
1351;DHT22;669;50.206;9.998;2023-05-16T00:56:28;11.70;93.50
1351;DHT22;669;50.206;9.998;2023-05-16T00:58:58;11.70;93.90
1351;DHT22;669;50.206;9.998;2023-05-16T01:01:27;11.70;94.00
1351;DHT22;669;50.206;9.998;2023-05-16T01:03:57;11.70;93.90
1351;DHT22;669;50.206;9.998;2023-05-16T01:06:27;11.70;94.60
1351;DHT22;669;50.206;9.998;2023-05-16T01:08:55;11.70;94.10
1351;DHT22;669;50.206;9.998;2023-05-16T01:11:27;11.70;94.00
1351;DHT22;669;50.206;9.998;2023-05-16T01:14:02;11.70;94.50
1351;DHT22;669;50.206;9.998;2023-05-16T01:16:38;11.70;93.90
1351;DHT22;669;50.206;9.998;2023-05-16T01:19:13;11.60;94.00
1351;DHT22;669;50.206;9.998;2023-05-16T01:21:51;11.60;93.70
1351;DHT22;669;50.206;9.998;2023-05-16T01:24:32;11.50;94.70
1351;DHT22;669;50.206;9.998;2023-05-16T01:27:04;11.50;95.10
1351;DHT22;669;50.206;9.998;2023-05-16T01:29:32;11.50;95.00
1351;DHT22;669;50.206;9.998;2023-05-16T01:32:00;11.50;95.60
1351;DHT22;669;50.206;9.998;2023-05-16T01:34:28;11.60;95.60
1351;DHT22;669;50.206;9.998;2023-05-16T01:37:01;11.60;94.90
1351;DHT22;669;50.206;9.998;2023-05-16T01:39:38;11.60;95.90
1351;DHT22;669;50.206;9.998;2023-05-16T01:42:12;11.60;96.00
1351;DHT22;669;50.206;9.998;2023-05-16T01:44:44;11.60;95.70
1351;DHT22;669;50.206;9.998;2023-05-16T01:47:15;11.60;95.40
1351;DHT22;669;50.206;9.998;2023-05-16T01:49:49;11.60;95.50
1351;DHT22;669;50.206;9.998;2023-05-16T01:52:21;11.60;95.10
1351;DHT22;669;50.206;9.998;2023-05-16T01:54:52;11.60;95.00
1351;DHT22;669;50.206;9.998;2023-05-16T01:57:24;11.50;95.40
1351;DHT22;669;50.206;9.998;2023-05-16T01:59:52;11.50;95.20
1351;DHT22;669;50.206;9.998;2023-05-16T02:02:20;11.50;95.30
1351;DHT22;669;50.206;9.998;2023-05-16T02:04:49;11.50;95.50
1351;DHT22;669;50.206;9.998;2023-05-16T02:07:17;11.40;95.40
1351;DHT22;669;50.206;9.998;2023-05-16T02:09:45;11.40;95.30
1351;DHT22;669;50.206;9.998;2023-05-16T02:12:13;11.40;95.10
1351;DHT22;669;50.206;9.998;2023-05-16T02:14:43;11.40;95.20
1351;DHT22;669;50.206;9.998;2023-05-16T02:17:11;11.50;95.40
1351;DHT22;669;50.206;9.998;2023-05-16T02:19:39;11.50;95.00
1351;DHT22;669;50.206;9.998;2023-05-16T02:22:06;11.40;95.30
1351;DHT22;669;50.206;9.998;2023-05-16T02:24:35;11.40;95.90
1351;DHT22;669;50.206;9.998;2023-05-16T02:27:03;11.50;96.10
1351;DHT22;669;50.206;9.998;2023-05-16T02:29:31;11.50;95.90
1351;DHT22;669;50.206;9.998;2023-05-16T02:32:00;11.50;95.90
1351;DHT22;669;50.206;9.998;2023-05-16T02:34:28;11.40;95.60
1351;DHT22;669;50.206;9.998;2023-05-16T02:36:56;11.40;95.20
1351;DHT22;669;50.206;9.998;2023-05-16T02:39:23;11.40;95.90
1351;DHT22;669;50.206;9.998;2023-05-16T02:41:51;11.30;95.60
1351;DHT22;669;50.206;9.998;2023-05-16T02:44:19;11.30;95.80
1351;DHT22;669;50.206;9.998;2023-05-16T02:46:47;11.30;95.80
1351;DHT22;669;50.206;9.998;2023-05-16T02:49:17;11.30;95.40
1351;DHT22;669;50.206;9.998;2023-05-16T02:51:44;11.30;95.80
1351;DHT22;669;50.206;9.998;2023-05-16T02:54:12;11.30;95.80
1351;DHT22;669;50.206;9.998;2023-05-16T02:56:40;11.40;95.90
1351;DHT22;669;50.206;9.998;2023-05-16T02:59:08;11.40;95.70
1351;DHT22;669;50.206;9.998;2023-05-16T03:01:36;11.40;95.90
1351;DHT22;669;50.206;9.998;2023-05-16T03:04:04;11.40;95.90
1351;DHT22;669;50.206;9.998;2023-05-16T03:06:34;11.30;96.70
1351;DHT22;669;50.206;9.998;2023-05-16T03:09:02;11.40;96.40
1351;DHT22;669;50.206;9.998;2023-05-16T03:11:30;11.40;96.00
1351;DHT22;669;50.206;9.998;2023-05-16T03:13:58;11.40;96.30
1351;DHT22;669;50.206;9.998;2023-05-16T03:16:27;11.50;96.00
1351;DHT22;669;50.206;9.998;2023-05-16T03:18:56;11.50;95.50
1351;DHT22;669;50.206;9.998;2023-05-16T03:21:24;11.40;95.90
1351;DHT22;669;50.206;9.998;2023-05-16T03:23:53;11.40;95.90
1351;DHT22;669;50.206;9.998;2023-05-16T03:26:21;11.40;95.90
1351;DHT22;669;50.206;9.998;2023-05-16T03:28:50;11.40;95.80
1351;DHT22;669;50.206;9.998;2023-05-16T03:31:18;11.30;95.70
1351;DHT22;669;50.206;9.998;2023-05-16T03:33:46;11.30;95.80
1351;DHT22;669;50.206;9.998;2023-05-16T03:36:14;11.30;95.80
1351;DHT22;669;50.206;9.998;2023-05-16T03:38:42;11.30;96.10
1351;DHT22;669;50.206;9.998;2023-05-16T03:41:11;11.40;95.90
1351;DHT22;669;50.206;9.998;2023-05-16T03:43:39;11.40;95.40
1351;DHT22;669;50.206;9.998;2023-05-16T03:46:07;11.50;95.30
1351;DHT22;669;50.206;9.998;2023-05-16T03:48:35;11.50;95.10
1351;DHT22;669;50.206;9.998;2023-05-16T03:51:04;11.50;95.30
1351;DHT22;669;50.206;9.998;2023-05-16T03:53:32;11.50;95.10
1351;DHT22;669;50.206;9.998;2023-05-16T03:55:59;11.50;95.20
1351;DHT22;669;50.206;9.998;2023-05-16T03:58:29;11.50;96.10
1351;DHT22;669;50.206;9.998;2023-05-16T04:00:57;11.50;96.40
1351;DHT22;669;50.206;9.998;2023-05-16T04:03:24;11.50;96.30
1351;DHT22;669;50.206;9.998;2023-05-16T04:05:54;11.50;95.90
1351;DHT22;669;50.206;9.998;2023-05-16T04:08:22;11.50;96.00
1351;DHT22;669;50.206;9.998;2023-05-16T04:10:51;11.50;95.90
1351;DHT22;669;50.206;9.998;2023-05-16T04:13:19;11.40;95.40
1351;DHT22;669;50.206;9.998;2023-05-16T04:15:48;11.40;96.00
1351;DHT22;669;50.206;9.998;2023-05-16T04:18:16;11.40;96.30
1351;DHT22;669;50.206;9.998;2023-05-16T04:20:44;11.40;95.90
1351;DHT22;669;50.206;9.998;2023-05-16T04:23:13;11.40;95.60
1351;DHT22;669;50.206;9.998;2023-05-16T04:25:41;11.50;95.80
1351;DHT22;669;50.206;9.998;2023-05-16T04:28:09;11.40;95.40
1351;DHT22;669;50.206;9.998;2023-05-16T04:30:37;11.50;95.40
1351;DHT22;669;50.206;9.998;2023-05-16T04:33:06;11.50;95.40
1351;DHT22;669;50.206;9.998;2023-05-16T04:35:34;11.40;95.80
1351;DHT22;669;50.206;9.998;2023-05-16T04:38:03;11.40;95.20
1351;DHT22;669;50.206;9.998;2023-05-16T04:40:31;11.40;95.60
1351;DHT22;669;50.206;9.998;2023-05-16T04:42:59;11.30;95.70
1351;DHT22;669;50.206;9.998;2023-05-16T04:45:27;11.30;95.40
1351;DHT22;669;50.206;9.998;2023-05-16T04:47:55;11.30;95.50
1351;DHT22;669;50.206;9.998;2023-05-16T04:50:25;11.30;95.40
1351;DHT22;669;50.206;9.998;2023-05-16T04:52:52;11.50;95.70
1351;DHT22;669;50.206;9.998;2023-05-16T04:55:22;11.80;96.00
1351;DHT22;669;50.206;9.998;2023-05-16T04:57:50;12.20;95.00
1351;DHT22;669;50.206;9.998;2023-05-16T05:00:18;12.50;94.30
1351;DHT22;669;50.206;9.998;2023-05-16T05:02:47;12.80;94.10
1351;DHT22;669;50.206;9.998;2023-05-16T05:05:15;13.10;91.70
1351;DHT22;669;50.206;9.998;2023-05-16T05:07:44;13.40;89.00
1351;DHT22;669;50.206;9.998;2023-05-16T05:10:12;13.70;90.60
1351;DHT22;669;50.206;9.998;2023-05-16T05:12:40;14.00;87.50
1351;DHT22;669;50.206;9.998;2023-05-16T05:15:08;14.20;87.10
1351;DHT22;669;50.206;9.998;2023-05-16T05:17:36;14.50;83.20
1351;DHT22;669;50.206;9.998;2023-05-16T05:20:05;14.60;82.70
1351;DHT22;669;50.206;9.998;2023-05-16T05:22:34;14.80;82.70
1351;DHT22;669;50.206;9.998;2023-05-16T05:25:04;15.00;78.00
1351;DHT22;669;50.206;9.998;2023-05-16T05:27:32;15.20;76.90
1351;DHT22;669;50.206;9.998;2023-05-16T05:30:00;15.30;78.30
1351;DHT22;669;50.206;9.998;2023-05-16T05:32:28;15.60;77.60
1351;DHT22;669;50.206;9.998;2023-05-16T05:34:57;15.80;70.30
1351;DHT22;669;50.206;9.998;2023-05-16T05:37:25;16.00;70.10
1351;DHT22;669;50.206;9.998;2023-05-16T05:39:53;16.10;65.70
1351;DHT22;669;50.206;9.998;2023-05-16T05:42:22;16.20;65.30
1351;DHT22;669;50.206;9.998;2023-05-16T05:44:50;16.40;64.80
1351;DHT22;669;50.206;9.998;2023-05-16T05:47:18;16.50;62.00
1351;DHT22;669;50.206;9.998;2023-05-16T05:49:47;16.60;58.90
1351;DHT22;669;50.206;9.998;2023-05-16T05:52:15;16.70;60.30
1351;DHT22;669;50.206;9.998;2023-05-16T05:54:43;16.70;57.90
1351;DHT22;669;50.206;9.998;2023-05-16T05:57:11;16.50;63.20
1351;DHT22;669;50.206;9.998;2023-05-16T05:59:40;16.40;66.40
1351;DHT22;669;50.206;9.998;2023-05-16T06:02:08;16.30;64.30
1351;DHT22;669;50.206;9.998;2023-05-16T06:04:38;16.40;63.40
1351;DHT22;669;50.206;9.998;2023-05-16T06:07:08;16.30;62.80
1351;DHT22;669;50.206;9.998;2023-05-16T06:09:36;16.20;61.50
1351;DHT22;669;50.206;9.998;2023-05-16T06:12:04;16.00;64.70
1351;DHT22;669;50.206;9.998;2023-05-16T06:14:32;15.80;65.00
1351;DHT22;669;50.206;9.998;2023-05-16T06:17:01;15.50;65.00
1351;DHT22;669;50.206;9.998;2023-05-16T06:19:29;15.30;66.10
1351;DHT22;669;50.206;9.998;2023-05-16T06:21:57;15.00;69.20
1351;DHT22;669;50.206;9.998;2023-05-16T06:24:25;14.80;71.70
1351;DHT22;669;50.206;9.998;2023-05-16T06:26:55;14.80;72.40
1351;DHT22;669;50.206;9.998;2023-05-16T06:29:23;14.70;71.80
1351;DHT22;669;50.206;9.998;2023-05-16T06:31:51;14.50;74.20
1351;DHT22;669;50.206;9.998;2023-05-16T06:34:21;14.40;74.70
1351;DHT22;669;50.206;9.998;2023-05-16T06:36:53;14.10;78.90
1351;DHT22;669;50.206;9.998;2023-05-16T06:39:21;14.00;76.80
1351;DHT22;669;50.206;9.998;2023-05-16T06:41:49;13.90;79.80
1351;DHT22;669;50.206;9.998;2023-05-16T06:44:20;13.80;79.50
1351;DHT22;669;50.206;9.998;2023-05-16T06:46:48;13.70;82.40
1351;DHT22;669;50.206;9.998;2023-05-16T06:49:16;13.70;82.40
1351;DHT22;669;50.206;9.998;2023-05-16T06:51:46;13.60;79.50
1351;DHT22;669;50.206;9.998;2023-05-16T06:54:14;13.60;78.80
1351;DHT22;669;50.206;9.998;2023-05-16T06:56:42;13.50;78.30
1351;DHT22;669;50.206;9.998;2023-05-16T06:59:10;13.60;80.00
1351;DHT22;669;50.206;9.998;2023-05-16T07:01:38;13.60;82.30
1351;DHT22;669;50.206;9.998;2023-05-16T07:04:06;13.70;78.30
1351;DHT22;669;50.206;9.998;2023-05-16T07:06:34;13.70;80.90
1351;DHT22;669;50.206;9.998;2023-05-16T07:09:04;13.70;78.50
1351;DHT22;669;50.206;9.998;2023-05-16T07:11:32;13.70;77.60
1351;DHT22;669;50.206;9.998;2023-05-16T07:14:00;13.60;77.70
1351;DHT22;669;50.206;9.998;2023-05-16T07:16:28;13.50;77.40
1351;DHT22;669;50.206;9.998;2023-05-16T07:18:56;13.50;79.00
1351;DHT22;669;50.206;9.998;2023-05-16T07:21:24;13.40;80.80
1351;DHT22;669;50.206;9.998;2023-05-16T07:23:52;13.40;80.10
1351;DHT22;669;50.206;9.998;2023-05-16T07:26:21;13.40;80.80
1351;DHT22;669;50.206;9.998;2023-05-16T07:28:49;13.40;81.20
1351;DHT22;669;50.206;9.998;2023-05-16T07:31:18;13.40;78.90
1351;DHT22;669;50.206;9.998;2023-05-16T07:33:46;13.50;79.20
1351;DHT22;669;50.206;9.998;2023-05-16T07:36:15;13.50;78.50
1351;DHT22;669;50.206;9.998;2023-05-16T07:38:43;13.40;77.30
1351;DHT22;669;50.206;9.998;2023-05-16T07:41:11;13.40;76.60
1351;DHT22;669;50.206;9.998;2023-05-16T07:43:41;13.30;76.00
1351;DHT22;669;50.206;9.998;2023-05-16T07:46:09;13.20;78.20
1351;DHT22;669;50.206;9.998;2023-05-16T07:48:37;13.20;79.00
1351;DHT22;669;50.206;9.998;2023-05-16T07:51:05;13.30;77.20
1351;DHT22;669;50.206;9.998;2023-05-16T07:53:33;13.30;77.90
1351;DHT22;669;50.206;9.998;2023-05-16T07:56:02;13.40;78.70
1351;DHT22;669;50.206;9.998;2023-05-16T07:58:30;13.60;79.90
1351;DHT22;669;50.206;9.998;2023-05-16T08:00:59;13.70;77.60
1351;DHT22;669;50.206;9.998;2023-05-16T08:03:27;13.70;75.90
1351;DHT22;669;50.206;9.998;2023-05-16T08:05:55;13.80;74.70
1351;DHT22;669;50.206;9.998;2023-05-16T08:08:23;13.80;77.70
1351;DHT22;669;50.206;9.998;2023-05-16T08:10:51;13.70;74.80
1351;DHT22;669;50.206;9.998;2023-05-16T08:13:19;13.80;74.00
1351;DHT22;669;50.206;9.998;2023-05-16T08:15:47;14.00;76.40
1351;DHT22;669;50.206;9.998;2023-05-16T08:18:17;14.20;76.00
1351;DHT22;669;50.206;9.998;2023-05-16T08:20:48;14.30;72.20
1351;DHT22;669;50.206;9.998;2023-05-16T08:23:17;14.40;67.30
1351;DHT22;669;50.206;9.998;2023-05-16T08:25:45;14.50;70.10
1351;DHT22;669;50.206;9.998;2023-05-16T08:28:14;14.60;68.80
1351;DHT22;669;50.206;9.998;2023-05-16T08:30:42;14.70;67.50
1351;DHT22;669;50.206;9.998;2023-05-16T08:33:13;14.70;65.80
1351;DHT22;669;50.206;9.998;2023-05-16T08:35:43;14.60;67.30
1351;DHT22;669;50.206;9.998;2023-05-16T08:38:11;14.50;68.50
1351;DHT22;669;50.206;9.998;2023-05-16T08:40:39;14.50;68.70
1351;DHT22;669;50.206;9.998;2023-05-16T08:43:08;14.50;70.20
1351;DHT22;669;50.206;9.998;2023-05-16T08:45:36;14.40;63.60
1351;DHT22;669;50.206;9.998;2023-05-16T08:48:04;14.30;68.10
1351;DHT22;669;50.206;9.998;2023-05-16T08:50:36;14.10;71.50
1351;DHT22;669;50.206;9.998;2023-05-16T08:53:07;13.90;68.70
1351;DHT22;669;50.206;9.998;2023-05-16T08:55:37;13.60;68.90
1351;DHT22;669;50.206;9.998;2023-05-16T08:58:06;13.50;71.40
1351;DHT22;669;50.206;9.998;2023-05-16T09:00:35;13.40;72.90
1351;DHT22;669;50.206;9.998;2023-05-16T09:03:04;13.40;74.20
1351;DHT22;669;50.206;9.998;2023-05-16T09:05:32;13.40;73.00
1351;DHT22;669;50.206;9.998;2023-05-16T09:08:01;13.40;71.70
1351;DHT22;669;50.206;9.998;2023-05-16T09:10:30;13.50;71.30
1351;DHT22;669;50.206;9.998;2023-05-16T09:12:58;13.40;72.50
1351;DHT22;669;50.206;9.998;2023-05-16T09:15:31;13.30;71.90
1351;DHT22;669;50.206;9.998;2023-05-16T09:18:00;13.20;71.70
1351;DHT22;669;50.206;9.998;2023-05-16T09:20:28;13.20;71.00
1351;DHT22;669;50.206;9.998;2023-05-16T09:22:58;13.10;69.30
1351;DHT22;669;50.206;9.998;2023-05-16T09:25:29;13.10;71.50
1351;DHT22;669;50.206;9.998;2023-05-16T09:28:00;13.20;70.10
1351;DHT22;669;50.206;9.998;2023-05-16T09:30:30;13.30;68.30
1351;DHT22;669;50.206;9.998;2023-05-16T09:33:00;13.30;72.40
1351;DHT22;669;50.206;9.998;2023-05-16T09:35:28;13.40;71.20
1351;DHT22;669;50.206;9.998;2023-05-16T09:38:13;13.50;71.10
1351;DHT22;669;50.206;9.998;2023-05-16T09:40:41;13.70;71.10
1351;DHT22;669;50.206;9.998;2023-05-16T09:43:14;13.80;67.20
1351;DHT22;669;50.206;9.998;2023-05-16T09:45:45;13.80;69.40
1351;DHT22;669;50.206;9.998;2023-05-16T09:48:15;13.80;67.00
1351;DHT22;669;50.206;9.998;2023-05-16T09:50:48;13.60;66.30
1351;DHT22;669;50.206;9.998;2023-05-16T09:53:24;13.60;67.80
1351;DHT22;669;50.206;9.998;2023-05-16T09:55:59;13.40;66.60
1351;DHT22;669;50.206;9.998;2023-05-16T09:58:30;13.40;68.00
1351;DHT22;669;50.206;9.998;2023-05-16T10:00:58;13.30;69.70
1351;DHT22;669;50.206;9.998;2023-05-16T10:03:27;13.30;70.30
1351;DHT22;669;50.206;9.998;2023-05-16T10:05:56;13.20;69.30
1351;DHT22;669;50.206;9.998;2023-05-16T10:08:24;13.20;68.90
1351;DHT22;669;50.206;9.998;2023-05-16T10:10:55;13.20;67.40
1351;DHT22;669;50.206;9.998;2023-05-16T10:13:25;13.10;69.40
1351;DHT22;669;50.206;9.998;2023-05-16T10:15:58;13.10;69.00
1351;DHT22;669;50.206;9.998;2023-05-16T10:18:29;13.10;67.90
1351;DHT22;669;50.206;9.998;2023-05-16T10:21:04;13.10;69.60
1351;DHT22;669;50.206;9.998;2023-05-16T10:23:37;13.20;70.50
1351;DHT22;669;50.206;9.998;2023-05-16T10:26:08;13.30;67.20
1351;DHT22;669;50.206;9.998;2023-05-16T10:28:36;13.30;70.10
1351;DHT22;669;50.206;9.998;2023-05-16T10:31:07;13.30;65.30
1351;DHT22;669;50.206;9.998;2023-05-16T10:33:35;13.30;68.50
1351;DHT22;669;50.206;9.998;2023-05-16T10:36:04;13.30;70.70
1351;DHT22;669;50.206;9.998;2023-05-16T10:38:32;13.40;65.80
1351;DHT22;669;50.206;9.998;2023-05-16T10:41:01;13.40;67.30
1351;DHT22;669;50.206;9.998;2023-05-16T10:43:29;13.40;62.70
1351;DHT22;669;50.206;9.998;2023-05-16T10:46:02;13.60;70.90
1351;DHT22;669;50.206;9.998;2023-05-16T10:48:35;13.90;65.70
1351;DHT22;669;50.206;9.998;2023-05-16T10:51:32;14.20;60.30
1351;DHT22;669;50.206;9.998;2023-05-16T10:54:04;14.30;61.80
1351;DHT22;669;50.206;9.998;2023-05-16T10:56:33;14.40;62.10
1351;DHT22;669;50.206;9.998;2023-05-16T10:59:01;14.30;60.10
1351;DHT22;669;50.206;9.998;2023-05-16T11:01:32;14.10;59.00
1351;DHT22;669;50.206;9.998;2023-05-16T11:04:09;14.10;59.20
1351;DHT22;669;50.206;9.998;2023-05-16T11:06:48;13.90;63.10
1351;DHT22;669;50.206;9.998;2023-05-16T11:09:22;13.90;60.90
1351;DHT22;669;50.206;9.998;2023-05-16T11:12:01;14.00;63.20
1351;DHT22;669;50.206;9.998;2023-05-16T11:14:36;14.30;63.10
1351;DHT22;669;50.206;9.998;2023-05-16T11:17:09;14.60;61.40
1351;DHT22;669;50.206;9.998;2023-05-16T11:19:43;14.90;57.70
1351;DHT22;669;50.206;9.998;2023-05-16T11:22:22;15.60;59.40
1351;DHT22;669;50.206;9.998;2023-05-16T11:24:53;16.30;54.50
1351;DHT22;669;50.206;9.998;2023-05-16T11:27:24;17.00;51.80
1351;DHT22;669;50.206;9.998;2023-05-16T11:29:57;17.00;47.20
1351;DHT22;669;50.206;9.998;2023-05-16T11:32:29;17.00;51.50
1351;DHT22;669;50.206;9.998;2023-05-16T11:34:59;17.00;48.00
1351;DHT22;669;50.206;9.998;2023-05-16T11:37:28;17.00;45.80
1351;DHT22;669;50.206;9.998;2023-05-16T11:39:58;17.00;48.70
1351;DHT22;669;50.206;9.998;2023-05-16T11:42:29;17.10;50.90
1351;DHT22;669;50.206;9.998;2023-05-16T11:45:04;17.10;45.40
1351;DHT22;669;50.206;9.998;2023-05-16T11:47:32;16.80;52.00
1351;DHT22;669;50.206;9.998;2023-05-16T11:50:03;16.70;48.20
1351;DHT22;669;50.206;9.998;2023-05-16T11:52:31;16.30;47.70
1351;DHT22;669;50.206;9.998;2023-05-16T11:54:59;16.20;46.60
1351;DHT22;669;50.206;9.998;2023-05-16T11:57:28;16.30;45.10
1351;DHT22;669;50.206;9.998;2023-05-16T12:00:00;16.40;47.30
1351;DHT22;669;50.206;9.998;2023-05-16T12:02:29;16.50;47.40
1351;DHT22;669;50.206;9.998;2023-05-16T12:04:57;16.50;43.30
1351;DHT22;669;50.206;9.998;2023-05-16T12:07:28;16.50;50.10
1351;DHT22;669;50.206;9.998;2023-05-16T12:09:56;16.70;47.70
1351;DHT22;669;50.206;9.998;2023-05-16T12:12:24;16.90;40.00
1351;DHT22;669;50.206;9.998;2023-05-16T12:14:52;16.90;43.00
1351;DHT22;669;50.206;9.998;2023-05-16T12:17:20;17.00;44.60
1351;DHT22;669;50.206;9.998;2023-05-16T12:19:49;16.90;41.50
1351;DHT22;669;50.206;9.998;2023-05-16T12:22:18;16.80;41.70
1351;DHT22;669;50.206;9.998;2023-05-16T12:24:47;16.70;37.40
1351;DHT22;669;50.206;9.998;2023-05-16T12:27:20;16.70;39.30
1351;DHT22;669;50.206;9.998;2023-05-16T12:29:49;16.90;37.60
1351;DHT22;669;50.206;9.998;2023-05-16T12:32:17;17.20;37.30
1351;DHT22;669;50.206;9.998;2023-05-16T12:34:48;17.30;37.70
1351;DHT22;669;50.206;9.998;2023-05-16T12:37:17;17.20;36.50
1351;DHT22;669;50.206;9.998;2023-05-16T12:39:47;17.00;36.00
1351;DHT22;669;50.206;9.998;2023-05-16T12:42:15;17.00;38.10
1351;DHT22;669;50.206;9.998;2023-05-16T12:44:44;17.20;35.70
1351;DHT22;669;50.206;9.998;2023-05-16T12:47:12;17.00;38.50
1351;DHT22;669;50.206;9.998;2023-05-16T12:49:43;16.80;36.70
1351;DHT22;669;50.206;9.998;2023-05-16T12:52:17;16.80;39.70
1351;DHT22;669;50.206;9.998;2023-05-16T12:54:50;16.80;39.10
1351;DHT22;669;50.206;9.998;2023-05-16T12:57:18;16.80;37.40
1351;DHT22;669;50.206;9.998;2023-05-16T12:59:46;16.90;37.80
1351;DHT22;669;50.206;9.998;2023-05-16T13:02:14;16.90;36.30
1351;DHT22;669;50.206;9.998;2023-05-16T13:04:42;16.70;39.30
1351;DHT22;669;50.206;9.998;2023-05-16T13:07:10;16.80;37.40
1351;DHT22;669;50.206;9.998;2023-05-16T13:09:38;17.00;35.00
1351;DHT22;669;50.206;9.998;2023-05-16T13:12:08;17.10;36.20
1351;DHT22;669;50.206;9.998;2023-05-16T13:14:37;17.30;35.00
1351;DHT22;669;50.206;9.998;2023-05-16T13:17:07;17.50;34.70
1351;DHT22;669;50.206;9.998;2023-05-16T13:19:37;18.20;32.50
1351;DHT22;669;50.206;9.998;2023-05-16T13:22:05;18.50;30.10
1351;DHT22;669;50.206;9.998;2023-05-16T13:24:33;18.70;29.10
1351;DHT22;669;50.206;9.998;2023-05-16T13:27:01;18.70;28.70
1351;DHT22;669;50.206;9.998;2023-05-16T13:29:30;18.70;28.20
1351;DHT22;669;50.206;9.998;2023-05-16T13:31:58;18.90;28.50
1351;DHT22;669;50.206;9.998;2023-05-16T13:34:26;18.90;28.10
1351;DHT22;669;50.206;9.998;2023-05-16T13:36:55;19.20;29.10
1351;DHT22;669;50.206;9.998;2023-05-16T13:39:22;19.10;29.70
1351;DHT22;669;50.206;9.998;2023-05-16T13:41:51;19.00;26.80
1351;DHT22;669;50.206;9.998;2023-05-16T13:44:19;18.70;26.90
1351;DHT22;669;50.206;9.998;2023-05-16T13:46:49;18.70;26.90
1351;DHT22;669;50.206;9.998;2023-05-16T13:49:17;18.60;25.20
1351;DHT22;669;50.206;9.998;2023-05-16T13:51:45;18.40;27.50
1351;DHT22;669;50.206;9.998;2023-05-16T13:54:13;17.90;28.20
1351;DHT22;669;50.206;9.998;2023-05-16T13:56:41;17.60;28.60
1351;DHT22;669;50.206;9.998;2023-05-16T13:59:09;17.10;25.80
1351;DHT22;669;50.206;9.998;2023-05-16T14:01:44;16.70;25.50
1351;DHT22;669;50.206;9.998;2023-05-16T14:04:13;16.50;26.00
1351;DHT22;669;50.206;9.998;2023-05-16T14:06:44;16.50;28.00
1351;DHT22;669;50.206;9.998;2023-05-16T14:09:12;16.40;28.40
1351;DHT22;669;50.206;9.998;2023-05-16T14:11:40;16.50;29.90
1351;DHT22;669;50.206;9.998;2023-05-16T14:14:08;16.50;27.80
1351;DHT22;669;50.206;9.998;2023-05-16T14:16:36;16.50;27.30
1351;DHT22;669;50.206;9.998;2023-05-16T14:19:04;16.60;28.70
1351;DHT22;669;50.206;9.998;2023-05-16T14:21:34;16.70;28.10
1351;DHT22;669;50.206;9.998;2023-05-16T14:24:03;16.90;26.90
1351;DHT22;669;50.206;9.998;2023-05-16T14:26:31;17.00;27.00
1351;DHT22;669;50.206;9.998;2023-05-16T14:28:59;17.00;27.00
1351;DHT22;669;50.206;9.998;2023-05-16T14:31:27;16.90;27.00
1351;DHT22;669;50.206;9.998;2023-05-16T14:33:55;16.70;27.40
1351;DHT22;669;50.206;9.998;2023-05-16T14:36:24;16.70;27.30
1351;DHT22;669;50.206;9.998;2023-05-16T14:38:53;16.70;25.10
1351;DHT22;669;50.206;9.998;2023-05-16T14:41:21;16.80;28.10
1351;DHT22;669;50.206;9.998;2023-05-16T14:43:49;16.90;27.10
1351;DHT22;669;50.206;9.998;2023-05-16T14:46:17;16.80;28.20
1351;DHT22;669;50.206;9.998;2023-05-16T14:48:45;16.90;27.00
1351;DHT22;669;50.206;9.998;2023-05-16T14:51:13;16.90;29.60
1351;DHT22;669;50.206;9.998;2023-05-16T14:53:42;16.90;26.70
1351;DHT22;669;50.206;9.998;2023-05-16T14:56:14;16.70;23.90
1351;DHT22;669;50.206;9.998;2023-05-16T14:58:42;16.60;26.00
1351;DHT22;669;50.206;9.998;2023-05-16T15:01:10;16.60;26.70
1351;DHT22;669;50.206;9.998;2023-05-16T15:03:38;16.60;26.30
1351;DHT22;669;50.206;9.998;2023-05-16T15:06:21;16.70;26.00
1351;DHT22;669;50.206;9.998;2023-05-16T15:08:49;16.80;28.70
1351;DHT22;669;50.206;9.998;2023-05-16T15:11:18;16.70;25.50
1351;DHT22;669;50.206;9.998;2023-05-16T15:13:47;16.60;24.20
1351;DHT22;669;50.206;9.998;2023-05-16T15:16:15;16.40;25.60
1351;DHT22;669;50.206;9.998;2023-05-16T15:18:43;16.30;25.50
1351;DHT22;669;50.206;9.998;2023-05-16T15:21:11;16.30;24.60
1351;DHT22;669;50.206;9.998;2023-05-16T15:23:39;16.30;25.30
1351;DHT22;669;50.206;9.998;2023-05-16T15:26:07;16.30;25.10
1351;DHT22;669;50.206;9.998;2023-05-16T15:28:38;16.10;26.30
1351;DHT22;669;50.206;9.998;2023-05-16T15:31:05;16.10;28.80
1351;DHT22;669;50.206;9.998;2023-05-16T15:33:33;16.10;25.80
1351;DHT22;669;50.206;9.998;2023-05-16T15:36:01;16.00;24.90
1351;DHT22;669;50.206;9.998;2023-05-16T15:38:30;16.00;25.20
1351;DHT22;669;50.206;9.998;2023-05-16T15:40:58;16.00;25.50
1351;DHT22;669;50.206;9.998;2023-05-16T15:43:48;16.00;27.40
1351;DHT22;669;50.206;9.998;2023-05-16T15:46:16;16.10;25.00
1351;DHT22;669;50.206;9.998;2023-05-16T15:48:44;16.00;25.50
1351;DHT22;669;50.206;9.998;2023-05-16T15:51:12;15.90;25.20
1351;DHT22;669;50.206;9.998;2023-05-16T15:53:41;15.80;26.20
1351;DHT22;669;50.206;9.998;2023-05-16T15:56:10;15.80;26.00
1351;DHT22;669;50.206;9.998;2023-05-16T15:58:38;15.70;25.10
1351;DHT22;669;50.206;9.998;2023-05-16T16:01:07;15.60;24.70
1351;DHT22;669;50.206;9.998;2023-05-16T16:03:35;15.50;25.40
1351;DHT22;669;50.206;9.998;2023-05-16T16:06:03;15.40;25.20
1351;DHT22;669;50.206;9.998;2023-05-16T16:08:31;15.40;26.60
1351;DHT22;669;50.206;9.998;2023-05-16T16:10:59;15.30;24.40
1351;DHT22;669;50.206;9.998;2023-05-16T16:13:27;15.30;25.30
1351;DHT22;669;50.206;9.998;2023-05-16T16:15:56;15.20;24.90
1351;DHT22;669;50.206;9.998;2023-05-16T16:18:26;15.10;24.90
1351;DHT22;669;50.206;9.998;2023-05-16T16:20:54;15.10;25.20
1351;DHT22;669;50.206;9.998;2023-05-16T16:23:22;15.10;25.70
1351;DHT22;669;50.206;9.998;2023-05-16T16:25:50;15.10;25.00
1351;DHT22;669;50.206;9.998;2023-05-16T16:28:18;15.00;25.00
1351;DHT22;669;50.206;9.998;2023-05-16T16:30:48;15.00;24.60